createdAt,value
2018-03-01T00:01:28.462Z,10.43
2018-03-01T00:03:55.946Z,8.43
2018-03-01T00:06:24.291Z,10.60
2018-03-01T00:08:53.464Z,14.67
2018-03-01T00:11:21.000Z,10.80
2018-03-01T00:13:48.513Z,11.93
2018-03-01T00:16:16.008Z,14.40
2018-03-01T00:18:44.437Z,13.17
2018-03-01T00:21:13.428Z,9.10
2018-03-01T00:23:41.480Z,10.40
2018-03-01T00:26:09.434Z,8.73
2018-03-01T00:28:36.924Z,9.90
2018-03-01T00:31:05.603Z,11.57
2018-03-01T00:33:34.090Z,10.23
2018-03-01T00:36:03.178Z,9.77
2018-03-01T00:38:30.670Z,10.87
2018-03-01T00:40:58.140Z,10.07
2018-03-01T00:43:25.647Z,10.67
2018-03-01T00:45:53.912Z,11.30
2018-03-01T00:48:22.045Z,11.13
2018-03-01T00:50:49.563Z,11.50
2018-03-01T00:53:17.832Z,9.07
2018-03-01T00:55:45.692Z,9.37
2018-03-01T00:58:13.171Z,13.63
2018-03-01T01:00:44.568Z,12.23
2018-03-01T01:03:12.287Z,11.17
2018-03-01T01:05:40.469Z,12.27
2018-03-01T01:08:07.960Z,11.53
2018-03-01T01:10:35.458Z,12.40
2018-03-01T01:13:04.711Z,10.17
2018-03-01T01:15:33.112Z,13.43
2018-03-01T01:18:02.149Z,9.27
2018-03-01T01:20:29.933Z,11.47
2018-03-01T01:22:58.040Z,13.83
2018-03-01T01:25:27.608Z,13.70
2018-03-01T01:27:57.362Z,8.60
2018-03-01T01:30:24.885Z,10.97
2018-03-01T01:32:52.943Z,13.50
2018-03-01T01:35:21.284Z,10.50
2018-03-01T01:37:55.012Z,7.43
2018-03-01T01:40:22.898Z,9.20
2018-03-01T01:42:50.369Z,11.53
2018-03-01T01:45:17.849Z,9.90
2018-03-01T01:47:45.699Z,9.00
2018-03-01T01:50:13.847Z,12.87
2018-03-01T01:52:41.556Z,11.50
2018-03-01T01:55:10.248Z,9.80
2018-03-01T01:57:37.725Z,10.00
2018-03-01T02:00:08.361Z,11.60
2018-03-01T02:02:36.578Z,6.73
2018-03-01T02:05:04.719Z,11.37
2018-03-01T02:07:32.217Z,10.90
2018-03-01T02:10:00.841Z,10.93
2018-03-01T02:12:28.322Z,12.50
2018-03-01T02:14:55.980Z,10.47
2018-03-01T02:17:23.467Z,12.17
2018-03-01T02:19:50.965Z,9.93
2018-03-01T02:22:18.479Z,8.80
2018-03-01T02:24:48.549Z,13.00
2018-03-01T02:27:16.878Z,12.87
2018-03-01T02:29:45.863Z,9.67
2018-03-01T02:32:16.334Z,8.97
2018-03-01T02:34:45.747Z,11.90
2018-03-01T02:37:13.254Z,8.97
2018-03-01T02:39:41.512Z,9.20
2018-03-01T02:42:09.454Z,10.10
2018-03-01T02:44:38.599Z,10.90
2018-03-01T02:47:06.959Z,12.03
2018-03-01T02:49:34.458Z,7.53
2018-03-01T02:52:02.161Z,10.63
2018-03-01T02:54:31.349Z,11.43
2018-03-01T02:56:58.861Z,11.17
2018-03-01T02:59:27.176Z,13.90
2018-03-01T03:01:54.666Z,10.20
2018-03-01T03:04:24.149Z,10.77
2018-03-01T03:06:51.630Z,9.70
2018-03-01T03:09:19.917Z,10.73
2018-03-01T03:11:49.636Z,8.17
2018-03-01T03:14:17.890Z,12.43
2018-03-01T03:16:46.693Z,11.77
2018-03-01T03:19:14.977Z,12.37
2018-03-01T03:21:42.467Z,9.67
2018-03-01T03:24:10.029Z,10.17
2018-03-01T03:26:38.287Z,11.50
2018-03-01T03:29:06.475Z,10.50
2018-03-01T03:31:33.973Z,10.97
2018-03-01T03:34:02.565Z,8.23
2018-03-01T03:36:31.685Z,10.67
2018-03-01T03:38:59.157Z,11.73
2018-03-01T03:41:26.627Z,10.03
2018-03-01T03:43:55.072Z,10.10
2018-03-01T03:46:22.553Z,10.30
2018-03-01T03:48:50.816Z,10.40
2018-03-01T03:51:20.232Z,11.00
2018-03-01T03:53:48.508Z,10.47
2018-03-01T03:56:16.739Z,9.57
2018-03-01T03:58:46.792Z,11.20
2018-03-01T04:01:14.295Z,10.93
2018-03-01T04:03:45.039Z,11.93
2018-03-01T04:06:13.318Z,7.60
2018-03-01T04:08:41.559Z,8.40
2018-03-01T04:11:09.392Z,10.97
2018-03-01T04:26:42.001Z,9.90
2018-03-01T04:29:11.939Z,10.23
2018-03-01T04:31:39.451Z,10.37
2018-03-01T04:34:07.736Z,8.43
2018-03-01T04:36:36.449Z,10.57
2018-03-01T04:39:03.961Z,11.03
2018-03-01T04:41:31.446Z,9.77
2018-03-01T04:44:00.637Z,9.97
2018-03-01T04:46:29.661Z,9.00
2018-03-01T04:48:57.174Z,8.93
2018-03-01T04:51:25.219Z,10.40
2018-03-01T04:53:53.762Z,8.80
2018-03-01T04:56:21.250Z,12.47
2018-03-01T04:58:48.807Z,8.57
2018-03-01T05:01:16.376Z,12.27
2018-03-01T05:03:43.860Z,9.10
2018-03-01T05:06:12.138Z,8.47
2018-03-01T05:08:42.165Z,11.73
2018-03-01T05:11:11.107Z,6.60
2018-03-01T05:13:39.362Z,9.60
2018-03-01T05:16:06.833Z,8.53
2018-03-01T05:18:35.577Z,9.50
2018-03-01T05:21:03.814Z,11.10
2018-03-01T05:23:31.515Z,11.37
2018-03-01T05:26:00.755Z,10.43
2018-03-01T05:28:28.290Z,12.80
2018-03-01T05:30:55.819Z,9.07
2018-03-01T05:33:24.113Z,12.87
2018-03-01T05:35:52.403Z,12.07
2018-03-01T05:38:19.899Z,11.67
2018-03-01T05:40:47.404Z,9.20
2018-03-01T05:43:14.915Z,12.23
2018-03-01T05:45:44.336Z,11.97
2018-03-01T05:48:12.594Z,12.30
2018-03-01T05:50:40.928Z,11.73
2018-03-01T05:53:08.459Z,7.77
2018-03-01T05:55:35.951Z,11.07
2018-03-01T05:58:03.486Z,12.60
2018-03-01T06:00:31.000Z,9.47
2018-03-01T06:03:00.716Z,8.10
2018-03-01T06:05:28.954Z,9.23
2018-03-01T06:07:56.444Z,12.00
2018-03-01T06:10:23.995Z,10.60
2018-03-01T06:12:52.765Z,11.70
2018-03-01T06:15:20.300Z,9.50
2018-03-01T06:17:49.708Z,12.27
2018-03-01T06:20:17.259Z,10.90
2018-03-01T06:22:45.472Z,8.80
2018-03-01T06:25:13.731Z,8.30
2018-03-01T06:27:41.222Z,8.70
2018-03-01T06:30:12.586Z,11.20
2018-03-01T06:32:41.384Z,11.53
2018-03-01T06:35:08.967Z,11.10
2018-03-01T06:37:37.415Z,12.27
2018-03-01T06:40:05.895Z,10.87
2018-03-01T06:42:33.371Z,13.37
2018-03-01T06:45:00.866Z,10.73
2018-03-01T06:47:28.357Z,10.40
2018-03-01T06:49:55.927Z,9.57
2018-03-01T06:52:25.515Z,9.10
2018-03-01T06:54:53.058Z,10.00
2018-03-01T06:57:20.767Z,10.90
2018-03-01T06:59:50.381Z,8.63
2018-03-01T07:02:18.183Z,11.13
2018-03-01T07:04:45.727Z,11.13
2018-03-01T07:07:13.195Z,12.30
2018-03-01T07:09:40.668Z,9.13
2018-03-01T07:12:08.136Z,10.67
2018-03-01T07:14:36.444Z,10.20
2018-03-01T07:17:03.906Z,6.63
2018-03-01T07:19:32.318Z,10.83
2018-03-01T07:22:00.574Z,8.80
2018-03-01T07:24:28.066Z,9.37
2018-03-01T07:26:56.334Z,10.07
2018-03-01T07:29:24.600Z,10.63
2018-03-01T07:31:53.088Z,9.83
2018-03-01T07:34:21.333Z,10.70
2018-03-01T07:36:48.816Z,13.13
2018-03-01T07:39:18.880Z,9.00
2018-03-01T07:41:46.374Z,10.50
2018-03-01T07:44:13.866Z,6.83
2018-03-01T07:46:41.379Z,11.70
2018-03-01T07:49:09.880Z,9.93
2018-03-01T07:51:38.822Z,7.40
2018-03-01T07:54:06.914Z,9.47
2018-03-01T07:56:34.408Z,9.87
2018-03-01T07:59:02.643Z,10.33
2018-03-01T08:01:30.136Z,9.47
2018-03-01T08:03:59.076Z,8.13
2018-03-01T08:06:26.552Z,7.63
2018-03-01T08:08:54.028Z,9.80
2018-03-01T08:11:22.994Z,8.03
2018-03-01T08:13:52.460Z,9.50
2018-03-01T08:16:20.642Z,9.87
2018-03-01T08:18:48.130Z,11.27
2018-03-01T08:21:15.649Z,8.47
2018-03-01T08:23:43.123Z,7.80
2018-03-01T08:26:10.620Z,10.03
2018-03-01T08:28:38.872Z,10.07
2018-03-01T08:31:06.360Z,9.53
2018-03-01T08:33:34.623Z,9.07
2018-03-01T08:36:02.884Z,9.23
2018-03-01T08:38:31.239Z,9.83
2018-03-01T08:40:58.739Z,11.83
2018-03-01T08:43:26.978Z,8.20
2018-03-01T08:45:54.494Z,9.03
2018-03-01T08:48:21.956Z,11.17
2018-03-01T08:50:49.453Z,11.73
2018-03-01T08:53:17.711Z,7.87
2018-03-01T08:55:45.200Z,7.97
2018-03-01T08:58:13.447Z,9.33
2018-03-01T09:00:40.926Z,8.93
2018-03-01T09:03:09.197Z,8.57
2018-03-01T09:05:36.685Z,9.53
2018-03-01T09:08:04.151Z,8.03
2018-03-01T09:10:31.855Z,7.90
2018-03-01T09:12:59.344Z,8.63
2018-03-01T09:15:28.218Z,7.60
2018-03-01T09:17:55.752Z,8.67
2018-03-01T09:20:23.351Z,8.93
2018-03-01T09:22:51.603Z,7.90
2018-03-01T09:25:19.109Z,6.90
2018-03-01T09:27:46.629Z,8.63
2018-03-01T09:30:14.156Z,6.63
2018-03-01T09:32:42.594Z,8.23
2018-03-01T09:35:10.686Z,6.37
2018-03-01T09:37:38.202Z,7.43
2018-03-01T09:40:07.169Z,7.60
2018-03-01T09:42:34.708Z,9.47
2018-03-01T09:45:02.186Z,7.67
2018-03-01T09:47:29.693Z,8.30
2018-03-01T09:49:57.529Z,7.00
2018-03-01T09:52:25.755Z,6.77
2018-03-01T09:54:53.979Z,6.53
2018-03-01T09:57:22.271Z,9.57
2018-03-01T09:59:50.615Z,7.33
2018-03-01T10:02:18.093Z,7.03
2018-03-01T10:04:46.306Z,7.83
2018-03-01T10:07:13.860Z,7.83
2018-03-01T10:09:42.241Z,8.23
2018-03-01T10:12:09.736Z,9.13
2018-03-01T10:14:39.764Z,5.50
2018-03-01T10:17:08.377Z,5.40
2018-03-01T10:19:35.855Z,7.53
2018-03-01T10:22:03.439Z,8.30
2018-03-01T10:24:31.819Z,9.17
2018-03-01T10:26:59.273Z,7.87
2018-03-01T10:29:27.094Z,6.90
2018-03-01T10:31:55.212Z,6.90
2018-03-01T10:34:24.149Z,6.90
2018-03-01T10:36:51.624Z,7.50
2018-03-01T10:39:19.692Z,6.80
2018-03-01T10:41:47.162Z,8.23
2018-03-01T10:44:14.674Z,6.13
2018-03-01T10:46:42.315Z,6.67
2018-03-01T10:49:10.543Z,5.63
2018-03-01T10:51:38.094Z,8.50
2018-03-01T10:54:05.555Z,7.70
2018-03-01T10:56:33.057Z,8.13
2018-03-01T10:59:01.277Z,8.37
2018-03-01T11:01:32.800Z,7.13
2018-03-01T11:04:01.280Z,8.17
2018-03-01T11:06:28.955Z,7.80
2018-03-01T11:08:56.472Z,5.33
2018-03-01T11:11:23.970Z,8.93
2018-03-01T11:13:51.494Z,6.90
2018-03-01T11:16:19.732Z,5.27
2018-03-01T11:18:47.294Z,7.73
2018-03-01T11:21:15.206Z,6.13
2018-03-01T11:23:43.499Z,8.70
2018-03-01T11:26:10.986Z,7.30
2018-03-01T11:28:38.482Z,7.17
2018-03-01T11:31:06.731Z,7.87
2018-03-01T11:33:35.035Z,6.83
2018-03-01T11:36:03.322Z,8.43
2018-03-01T11:38:32.155Z,6.10
2018-03-01T11:41:01.219Z,6.07
2018-03-01T11:43:28.942Z,7.10
2018-03-01T11:45:57.200Z,5.67
2018-03-01T11:48:24.673Z,6.27
2018-03-01T11:50:52.911Z,8.03
2018-03-01T11:53:20.403Z,7.77
2018-03-01T11:55:48.644Z,8.17
2018-03-01T11:58:16.884Z,7.80
2018-03-01T12:00:44.349Z,7.20
2018-03-01T12:03:12.835Z,9.43
2018-03-01T12:05:40.342Z,6.20
2018-03-01T12:08:10.493Z,8.30
2018-03-01T12:10:38.042Z,6.90
2018-03-01T12:13:06.237Z,6.53
2018-03-01T12:15:35.547Z,6.63
2018-03-01T12:18:03.007Z,7.00
2018-03-01T12:20:30.566Z,10.83
2018-03-01T12:22:58.178Z,8.67
2018-03-01T12:25:26.622Z,5.87
2018-03-01T12:27:54.116Z,6.43
2018-03-01T12:30:21.615Z,7.57
2018-03-01T12:32:49.913Z,7.80
2018-03-01T12:35:17.410Z,6.57
2018-03-01T12:37:44.879Z,5.80
2018-03-01T12:40:12.373Z,8.43
2018-03-01T12:42:40.705Z,6.77
2018-03-01T12:45:08.188Z,8.27
2018-03-01T12:47:35.930Z,6.90
2018-03-01T12:50:05.755Z,6.53
2018-03-01T12:52:33.266Z,7.77
2018-03-01T12:55:00.760Z,5.80
2018-03-01T12:57:28.256Z,6.63
2018-03-01T12:59:55.769Z,8.53
2018-03-01T13:02:23.254Z,7.10
2018-03-01T13:04:53.242Z,7.10
2018-03-01T13:07:21.576Z,8.40
2018-03-01T13:09:49.820Z,8.00
2018-03-01T13:12:17.297Z,6.80
2018-03-01T13:14:44.808Z,6.10
2018-03-01T13:17:13.480Z,8.20
2018-03-01T13:19:40.978Z,7.63
2018-03-01T13:22:08.465Z,6.20
2018-03-01T13:24:37.965Z,8.57
2018-03-01T13:27:06.316Z,7.87
2018-03-01T13:29:33.780Z,6.00
2018-03-01T13:32:06.637Z,6.10
2018-03-01T13:37:37.245Z,6.20
2018-03-01T13:40:04.872Z,5.97
2018-03-01T13:42:37.925Z,6.47
2018-03-01T13:45:05.472Z,5.97
2018-03-01T13:47:37.821Z,6.63
2018-03-01T13:50:05.323Z,7.33
2018-03-01T13:52:33.002Z,6.83
2018-03-01T13:55:00.990Z,4.47
2018-03-01T13:57:29.244Z,5.17
2018-03-01T13:59:56.776Z,7.37
2018-03-01T14:02:24.254Z,7.03
2018-03-01T14:04:51.737Z,7.93
2018-03-01T14:07:21.006Z,7.23
2018-03-01T14:09:49.459Z,5.27
2018-03-01T14:12:17.106Z,6.77
2018-03-01T14:14:44.618Z,5.67
2018-03-01T14:17:13.352Z,6.00
2018-03-01T14:20:01.239Z,7.43
2018-03-01T14:22:39.375Z,7.27
2018-03-01T14:25:17.548Z,6.77
2018-03-01T14:27:49.808Z,6.87
2018-03-01T14:30:27.325Z,6.63
2018-03-01T14:32:54.846Z,6.27
2018-03-01T14:35:22.804Z,7.87
2018-03-01T14:37:52.440Z,7.83
2018-03-01T14:40:20.473Z,7.00
2018-03-01T14:42:47.969Z,9.27
2018-03-01T14:45:16.219Z,8.50
2018-03-01T14:47:43.708Z,5.30
2018-03-01T14:50:11.934Z,7.80
2018-03-01T14:52:39.411Z,6.80
2018-03-01T14:55:07.630Z,7.53
2018-03-01T14:57:36.610Z,6.97
2018-03-01T15:00:04.891Z,8.33
2018-03-01T15:02:32.539Z,6.77
2018-03-01T15:05:00.815Z,7.40
2018-03-01T15:07:29.212Z,7.33
2018-03-01T15:09:57.021Z,7.97
2018-03-01T15:12:24.782Z,6.93
2018-03-01T15:14:52.723Z,6.73
2018-03-01T15:17:20.248Z,6.83
2018-03-01T15:19:48.519Z,8.20
2018-03-01T15:22:16.770Z,8.70
2018-03-01T15:24:44.253Z,8.03
2018-03-01T15:27:12.566Z,7.13
2018-03-01T15:29:41.999Z,7.23
2018-03-01T15:32:09.698Z,8.23
2018-03-01T15:34:37.334Z,8.17
2018-03-01T15:37:05.307Z,7.80
2018-03-01T15:39:34.035Z,5.03
2018-03-01T15:42:01.544Z,7.40
2018-03-01T15:44:29.643Z,6.80
2018-03-01T15:46:58.066Z,6.80
2018-03-01T15:49:25.704Z,7.50
2018-03-01T15:51:54.766Z,6.90
2018-03-01T15:54:23.089Z,7.87
2018-03-01T15:56:50.581Z,6.67
2018-03-01T15:59:19.688Z,9.17
2018-03-01T16:01:47.929Z,7.20
2018-03-01T16:04:15.593Z,6.77
2018-03-01T16:06:44.097Z,8.80
2018-03-01T16:09:12.362Z,8.70
2018-03-01T16:11:41.427Z,7.67
2018-03-01T16:14:08.921Z,8.07
2018-03-01T16:16:37.586Z,8.27
2018-03-01T16:19:05.245Z,9.07
2018-03-01T16:21:33.346Z,8.83
2018-03-01T16:24:00.981Z,8.40
2018-03-01T16:26:28.585Z,9.83
2018-03-01T16:28:56.114Z,7.00
2018-03-01T16:31:24.428Z,6.93
2018-03-01T16:33:51.913Z,8.67
2018-03-01T16:36:19.395Z,9.43
2018-03-01T16:38:48.203Z,9.37
2018-03-01T16:41:17.702Z,8.97
2018-03-01T16:43:45.802Z,9.50
2018-03-01T16:46:13.364Z,8.90
2018-03-01T16:48:40.848Z,7.40
2018-03-01T16:51:08.608Z,9.03
2018-03-01T16:53:36.624Z,9.53
2018-03-01T16:56:05.579Z,9.67
2018-03-01T16:58:33.711Z,7.60
2018-03-01T17:01:01.474Z,10.23
2018-03-01T17:03:29.937Z,8.07
2018-03-01T17:05:57.522Z,9.07
2018-03-01T17:08:25.309Z,11.50
2018-03-01T17:10:52.891Z,8.87
2018-03-01T17:13:21.227Z,9.90
2018-03-01T17:15:49.730Z,10.33
2018-03-01T17:18:17.244Z,10.63
2018-03-01T17:20:45.098Z,9.43
2018-03-01T17:23:15.009Z,9.20
2018-03-01T17:25:42.620Z,7.33
2018-03-01T17:28:10.647Z,10.60
2018-03-01T17:30:38.200Z,9.53
2018-03-01T17:33:05.799Z,11.60
2018-03-01T17:35:33.331Z,9.70
2018-03-01T17:38:01.154Z,10.30
2018-03-01T17:40:30.182Z,10.73
2018-03-01T17:42:58.056Z,7.97
2018-03-01T17:45:25.548Z,11.77
2018-03-01T17:47:55.472Z,9.83
2018-03-01T17:50:24.354Z,10.23
2018-03-01T17:52:51.952Z,11.67
2018-03-01T17:55:20.300Z,8.83
2018-03-01T17:57:48.558Z,10.37
2018-03-01T18:00:16.740Z,9.80
2018-03-01T18:02:45.008Z,10.67
2018-03-01T18:05:12.507Z,10.87
2018-03-01T18:07:40.001Z,11.03
2018-03-01T18:10:07.479Z,11.20
2018-03-01T18:12:35.047Z,11.33
2018-03-01T18:15:02.653Z,9.03
2018-03-01T18:17:30.146Z,10.23
2018-03-01T18:19:57.713Z,11.63
2018-03-01T18:22:25.482Z,9.77
2018-03-01T18:24:53.072Z,11.60
2018-03-01T18:27:20.552Z,9.47
2018-03-01T18:29:48.835Z,9.37
2018-03-01T18:32:17.133Z,10.30
2018-03-01T18:34:44.647Z,10.77
2018-03-01T18:37:12.123Z,9.60
2018-03-01T18:39:40.527Z,12.17
2018-03-01T18:42:10.778Z,13.70
2018-03-01T18:44:41.264Z,11.83
2018-03-01T18:47:08.865Z,9.83
2018-03-01T18:49:36.410Z,10.03
2018-03-01T18:52:03.947Z,10.00
2018-03-01T18:54:31.433Z,9.17
2018-03-01T18:56:58.928Z,13.20
2018-03-01T18:59:27.275Z,11.80
2018-03-01T19:01:54.793Z,9.40
2018-03-01T19:04:22.280Z,11.33
2018-03-01T19:06:50.037Z,11.93
2018-03-01T19:09:17.555Z,12.70
2018-03-01T19:11:45.879Z,10.93
2018-03-01T19:14:13.518Z,12.90
2018-03-01T19:16:41.040Z,11.97
2018-03-01T19:19:09.519Z,11.43
2018-03-01T19:21:42.870Z,13.67
2018-03-01T19:24:12.263Z,10.23
2018-03-01T19:26:39.764Z,14.37
2018-03-01T19:29:08.154Z,14.67
2018-03-01T19:31:36.453Z,11.40
2018-03-01T19:34:04.077Z,10.70
2018-03-01T19:36:32.362Z,16.10
2018-03-01T19:38:59.874Z,11.47
2018-03-01T19:41:27.380Z,13.97
2018-03-01T19:43:54.889Z,10.63
2018-03-01T19:46:22.527Z,13.57
2018-03-01T19:48:50.020Z,11.33
2018-03-01T19:51:17.657Z,12.17
2018-03-01T19:53:45.192Z,13.27
2018-03-01T19:56:14.512Z,13.87
2018-03-01T19:58:43.298Z,13.43
2018-03-01T20:01:11.136Z,13.63
2018-03-01T20:03:38.633Z,13.27
2018-03-01T20:06:06.200Z,13.07
2018-03-01T20:08:33.865Z,11.40
2018-03-01T20:11:01.366Z,12.23
2018-03-01T20:13:28.921Z,8.97
2018-03-01T20:15:56.418Z,13.23
2018-03-01T20:18:24.049Z,11.90
2018-03-01T20:20:51.634Z,10.67
2018-03-01T20:23:19.132Z,10.77
2018-03-01T20:25:47.493Z,11.20
2018-03-01T20:28:15.373Z,9.83
2018-03-01T20:30:43.392Z,11.30
2018-03-01T20:33:10.888Z,12.20
2018-03-01T20:35:38.484Z,9.77
2018-03-01T20:38:06.005Z,11.70
2018-03-01T20:40:33.497Z,13.40
2018-03-01T20:43:00.986Z,13.47
2018-03-01T20:45:28.491Z,11.60
2018-03-01T20:47:56.092Z,13.13
2018-03-01T20:50:23.629Z,12.17
2018-03-01T20:52:51.139Z,14.13
2018-03-01T20:55:18.940Z,11.27
2018-03-01T20:57:46.458Z,14.73
2018-03-01T21:00:14.002Z,13.17
2018-03-01T21:02:41.562Z,15.13
2018-03-01T21:05:09.118Z,14.27
2018-03-01T21:07:36.803Z,14.47
2018-03-01T21:10:05.217Z,12.23
2018-03-01T21:12:32.771Z,14.03
2018-03-01T21:15:00.324Z,9.87
2018-03-01T21:17:27.918Z,13.17
2018-03-01T21:19:55.415Z,14.03
2018-03-01T21:22:23.752Z,15.07
2018-03-01T21:24:51.378Z,14.27
2018-03-01T21:27:18.915Z,10.97
2018-03-01T21:29:47.210Z,14.43
2018-03-01T21:32:14.775Z,12.83
2018-03-01T21:34:42.425Z,11.57
2018-03-01T21:37:10.006Z,13.33
2018-03-01T21:39:37.697Z,14.87
2018-03-01T21:42:05.250Z,14.40
2018-03-01T21:44:32.815Z,13.23
2018-03-01T21:47:07.201Z,11.70
2018-03-01T21:49:34.721Z,14.47
2018-03-01T21:52:02.344Z,10.03
2018-03-01T21:54:29.993Z,14.30
2018-03-01T21:56:57.639Z,11.17
2018-03-01T21:59:25.337Z,11.67
2018-03-01T22:01:53.736Z,13.53
2018-03-01T22:04:22.097Z,11.63
2018-03-01T22:06:50.455Z,13.17
2018-03-01T22:09:18.016Z,13.60
2018-03-01T22:11:45.556Z,14.43
2018-03-01T22:14:13.076Z,14.30
2018-03-01T22:16:40.578Z,13.10
2018-03-01T22:19:08.106Z,14.47
2018-03-01T22:21:35.612Z,13.60
2018-03-01T22:24:03.900Z,13.53
2018-03-01T22:26:32.166Z,13.87
2018-03-01T22:29:00.460Z,13.83
2018-03-01T22:31:27.973Z,12.90
2018-03-01T22:33:55.538Z,13.87
2018-03-01T22:36:23.073Z,14.33
2018-03-01T22:38:50.560Z,15.90
2018-03-01T22:41:18.113Z,14.00
2018-03-01T22:43:45.592Z,11.63
2018-03-01T22:46:13.899Z,12.23
2018-03-01T22:48:41.387Z,15.67
2018-03-01T22:51:08.884Z,10.20
2018-03-01T22:53:36.386Z,13.93
2018-03-01T22:56:04.847Z,13.67
2018-03-01T22:58:32.334Z,14.27
2018-03-01T23:00:59.873Z,14.60
2018-03-01T23:03:27.413Z,13.00
2018-03-01T23:05:54.973Z,13.03
2018-03-01T23:08:23.250Z,12.90
2018-03-01T23:10:50.776Z,13.53
2018-03-01T23:13:18.327Z,11.10
2018-03-01T23:15:46.607Z,14.50
2018-03-01T23:18:14.850Z,14.73
2018-03-01T23:20:42.355Z,12.00
2018-03-01T23:23:09.863Z,12.60
2018-03-01T23:25:37.396Z,13.67
2018-03-01T23:28:04.918Z,15.37
2018-03-01T23:30:33.183Z,13.43
2018-03-01T23:33:01.488Z,14.40
2018-03-01T23:35:28.988Z,13.47
2018-03-01T23:37:56.521Z,13.70
2018-03-01T23:40:24.032Z,12.77
2018-03-01T23:42:52.318Z,15.83
2018-03-01T23:45:19.810Z,15.33
2018-03-01T23:47:47.300Z,15.47
2018-03-01T23:50:14.776Z,10.97
2018-03-01T23:52:43.093Z,13.13
2018-03-01T23:55:10.632Z,11.47
2018-03-01T23:57:38.144Z,13.43
